sensor_id;sensor_type;location;lat;lon;timestamp;temperature;humidity
18624;DHT22;9441;51.420;7.036;2024-03-08T00:00:19;2.90;67.80
18624;DHT22;9441;51.420;7.036;2024-03-08T00:01:21;2.90;74.70
18624;DHT22;9441;51.420;7.036;2024-03-08T00:02:22;2.80;46.30
18624;DHT22;9441;51.420;7.036;2024-03-08T00:03:24;2.80;76.50
18624;DHT22;9441;51.420;7.036;2024-03-08T00:04:25;2.90;99.90
18624;DHT22;9441;51.420;7.036;2024-03-08T00:05:27;2.90;97.50
18624;DHT22;9441;51.420;7.036;2024-03-08T00:06:29;2.90;99.90
18624;DHT22;9441;51.420;7.036;2024-03-08T00:07:31;2.90;99.90
18624;DHT22;9441;51.420;7.036;2024-03-08T00:08:32;2.80;85.30
18624;DHT22;9441;51.420;7.036;2024-03-08T00:09:33;2.80;99.90
18624;DHT22;9441;51.420;7.036;2024-03-08T00:10:35;2.80;99.90
18624;DHT22;9441;51.420;7.036;2024-03-08T00:11:36;2.70;90.80
18624;DHT22;9441;51.420;7.036;2024-03-08T00:12:39;2.70;99.90
18624;DHT22;9441;51.420;7.036;2024-03-08T00:13:42;2.70;99.90
18624;DHT22;9441;51.420;7.036;2024-03-08T00:14:47;2.60;99.90
18624;DHT22;9441;51.420;7.036;2024-03-08T00:15:47;2.80;99.90
18624;DHT22;9441;51.420;7.036;2024-03-08T00:16:49;2.60;99.90
18624;DHT22;9441;51.420;7.036;2024-03-08T00:17:50;2.60;99.90
18624;DHT22;9441;51.420;7.036;2024-03-08T00:18:52;2.70;99.90
18624;DHT22;9441;51.420;7.036;2024-03-08T00:19:53;2.60;99.90
18624;DHT22;9441;51.420;7.036;2024-03-08T00:20:55;2.50;99.90
18624;DHT22;9441;51.420;7.036;2024-03-08T00:21:57;2.50;99.90
18624;DHT22;9441;51.420;7.036;2024-03-08T00:22:59;2.60;99.90
18624;DHT22;9441;51.420;7.036;2024-03-08T00:24:00;2.60;99.90
18624;DHT22;9441;51.420;7.036;2024-03-08T00:25:02;2.70;99.90
18624;DHT22;9441;51.420;7.036;2024-03-08T00:26:03;2.60;99.90
18624;DHT22;9441;51.420;7.036;2024-03-08T00:27:05;2.50;99.90
18624;DHT22;9441;51.420;7.036;2024-03-08T00:28:06;2.60;99.90
18624;DHT22;9441;51.420;7.036;2024-03-08T00:29:09;2.60;99.90
18624;DHT22;9441;51.420;7.036;2024-03-08T00:30:11;2.60;99.90
18624;DHT22;9441;51.420;7.036;2024-03-08T00:31:14;2.60;99.90
18624;DHT22;9441;51.420;7.036;2024-03-08T00:32:17;2.50;99.90
18624;DHT22;9441;51.420;7.036;2024-03-08T00:33:19;2.40;99.90
18624;DHT22;9441;51.420;7.036;2024-03-08T00:34:20;2.50;99.90
18624;DHT22;9441;51.420;7.036;2024-03-08T00:35:22;2.50;99.90
18624;DHT22;9441;51.420;7.036;2024-03-08T00:36:23;2.50;99.90
18624;DHT22;9441;51.420;7.036;2024-03-08T00:37:25;2.50;99.90
18624;DHT22;9441;51.420;7.036;2024-03-08T00:38:26;2.60;99.90
18624;DHT22;9441;51.420;7.036;2024-03-08T00:39:28;2.60;99.90
18624;DHT22;9441;51.420;7.036;2024-03-08T00:40:29;2.50;99.90
18624;DHT22;9441;51.420;7.036;2024-03-08T00:41:30;2.60;99.90
18624;DHT22;9441;51.420;7.036;2024-03-08T00:42:32;2.60;99.90
18624;DHT22;9441;51.420;7.036;2024-03-08T00:43:34;2.60;99.90
18624;DHT22;9441;51.420;7.036;2024-03-08T00:44:36;2.60;99.90
18624;DHT22;9441;51.420;7.036;2024-03-08T00:45:38;2.60;99.90
18624;DHT22;9441;51.420;7.036;2024-03-08T00:46:43;2.70;99.90
18624;DHT22;9441;51.420;7.036;2024-03-08T00:47:44;2.70;99.90
18624;DHT22;9441;51.420;7.036;2024-03-08T00:48:46;2.70;99.90
18624;DHT22;9441;51.420;7.036;2024-03-08T00:49:47;2.60;99.90
18624;DHT22;9441;51.420;7.036;2024-03-08T00:50:49;2.60;99.90
18624;DHT22;9441;51.420;7.036;2024-03-08T00:51:50;2.50;99.90
18624;DHT22;9441;51.420;7.036;2024-03-08T00:52:52;2.50;99.90
18624;DHT22;9441;51.420;7.036;2024-03-08T00:53:54;2.50;99.90
18624;DHT22;9441;51.420;7.036;2024-03-08T00:54:56;2.60;99.90
18624;DHT22;9441;51.420;7.036;2024-03-08T00:55:57;2.60;99.90
18624;DHT22;9441;51.420;7.036;2024-03-08T00:56:59;2.50;99.90
18624;DHT22;9441;51.420;7.036;2024-03-08T00:58:03;2.50;99.90
18624;DHT22;9441;51.420;7.036;2024-03-08T00:59:07;2.50;99.90
18624;DHT22;9441;51.420;7.036;2024-03-08T01:00:08;2.60;99.90
18624;DHT22;9441;51.420;7.036;2024-03-08T01:01:14;2.60;99.90
18624;DHT22;9441;51.420;7.036;2024-03-08T01:02:16;2.60;99.90
18624;DHT22;9441;51.420;7.036;2024-03-08T01:03:19;2.70;99.90
18624;DHT22;9441;51.420;7.036;2024-03-08T01:04:20;2.70;99.90
18624;DHT22;9441;51.420;7.036;2024-03-08T01:05:24;2.60;99.90
18624;DHT22;9441;51.420;7.036;2024-03-08T01:06:25;2.70;99.90
18624;DHT22;9441;51.420;7.036;2024-03-08T01:07:27;2.60;99.90
18624;DHT22;9441;51.420;7.036;2024-03-08T01:08:28;2.50;99.90
18624;DHT22;9441;51.420;7.036;2024-03-08T01:09:30;2.60;99.90
18624;DHT22;9441;51.420;7.036;2024-03-08T01:10:31;2.60;99.90
18624;DHT22;9441;51.420;7.036;2024-03-08T01:11:33;2.50;99.90
18624;DHT22;9441;51.420;7.036;2024-03-08T01:12:34;2.50;99.90
18624;DHT22;9441;51.420;7.036;2024-03-08T01:13:36;2.50;99.90
18624;DHT22;9441;51.420;7.036;2024-03-08T01:14:37;2.40;99.90
18624;DHT22;9441;51.420;7.036;2024-03-08T01:15:39;2.30;99.90
18624;DHT22;9441;51.420;7.036;2024-03-08T01:16:43;2.50;99.90
18624;DHT22;9441;51.420;7.036;2024-03-08T01:17:45;2.60;99.90
18624;DHT22;9441;51.420;7.036;2024-03-08T01:18:47;2.60;99.90
18624;DHT22;9441;51.420;7.036;2024-03-08T01:19:49;2.60;99.90
18624;DHT22;9441;51.420;7.036;2024-03-08T01:20:50;2.50;99.90
18624;DHT22;9441;51.420;7.036;2024-03-08T01:21:52;2.50;99.90
18624;DHT22;9441;51.420;7.036;2024-03-08T01:22:53;2.30;99.90
18624;DHT22;9441;51.420;7.036;2024-03-08T01:23:54;2.30;99.90
18624;DHT22;9441;51.420;7.036;2024-03-08T01:24:56;2.40;99.90
18624;DHT22;9441;51.420;7.036;2024-03-08T01:25:57;2.50;99.90
18624;DHT22;9441;51.420;7.036;2024-03-08T01:26:59;2.40;99.90
18624;DHT22;9441;51.420;7.036;2024-03-08T01:28:00;2.40;99.90
18624;DHT22;9441;51.420;7.036;2024-03-08T01:29:03;2.40;99.90
18624;DHT22;9441;51.420;7.036;2024-03-08T01:30:05;2.30;99.90
18624;DHT22;9441;51.420;7.036;2024-03-08T01:31:07;2.40;99.90
18624;DHT22;9441;51.420;7.036;2024-03-08T01:32:09;2.30;99.90
18624;DHT22;9441;51.420;7.036;2024-03-08T01:33:12;2.40;99.90
18624;DHT22;9441;51.420;7.036;2024-03-08T01:34:13;2.40;99.90
18624;DHT22;9441;51.420;7.036;2024-03-08T01:35:15;2.40;99.90
18624;DHT22;9441;51.420;7.036;2024-03-08T01:36:16;2.30;99.90
18624;DHT22;9441;51.420;7.036;2024-03-08T01:37:20;2.40;99.90
18624;DHT22;9441;51.420;7.036;2024-03-08T01:38:21;2.40;99.90
18624;DHT22;9441;51.420;7.036;2024-03-08T01:39:23;2.20;99.90
18624;DHT22;9441;51.420;7.036;2024-03-08T01:40:24;2.30;99.90
18624;DHT22;9441;51.420;7.036;2024-03-08T01:41:25;2.30;99.90
18624;DHT22;9441;51.420;7.036;2024-03-08T01:42:28;2.30;99.90
18624;DHT22;9441;51.420;7.036;2024-03-08T01:43:31;2.20;99.90
18624;DHT22;9441;51.420;7.036;2024-03-08T01:44:32;2.30;99.90
18624;DHT22;9441;51.420;7.036;2024-03-08T01:45:35;2.40;99.90
18624;DHT22;9441;51.420;7.036;2024-03-08T01:46:36;2.40;99.90
18624;DHT22;9441;51.420;7.036;2024-03-08T01:47:39;2.30;99.90
18624;DHT22;9441;51.420;7.036;2024-03-08T01:48:41;2.30;99.90
18624;DHT22;9441;51.420;7.036;2024-03-08T01:49:43;2.40;99.90
18624;DHT22;9441;51.420;7.036;2024-03-08T01:50:45;2.40;99.90
18624;DHT22;9441;51.420;7.036;2024-03-08T01:51:48;2.20;99.90
18624;DHT22;9441;51.420;7.036;2024-03-08T01:52:49;2.10;99.90
18624;DHT22;9441;51.420;7.036;2024-03-08T01:53:51;2.20;99.90
18624;DHT22;9441;51.420;7.036;2024-03-08T01:54:52;2.10;99.90
18624;DHT22;9441;51.420;7.036;2024-03-08T01:55:57;2.20;99.90
18624;DHT22;9441;51.420;7.036;2024-03-08T01:56:58;2.10;99.90
18624;DHT22;9441;51.420;7.036;2024-03-08T01:57:59;2.00;99.90
18624;DHT22;9441;51.420;7.036;2024-03-08T01:59:01;2.00;99.90
18624;DHT22;9441;51.420;7.036;2024-03-08T02:00:04;2.10;99.90
18624;DHT22;9441;51.420;7.036;2024-03-08T02:01:07;2.10;99.90
18624;DHT22;9441;51.420;7.036;2024-03-08T02:02:11;2.20;99.90
18624;DHT22;9441;51.420;7.036;2024-03-08T02:03:18;2.10;99.90
18624;DHT22;9441;51.420;7.036;2024-03-08T02:04:19;2.00;99.90
18624;DHT22;9441;51.420;7.036;2024-03-08T02:05:22;2.00;99.90
18624;DHT22;9441;51.420;7.036;2024-03-08T02:06:24;2.00;99.90
18624;DHT22;9441;51.420;7.036;2024-03-08T02:07:26;1.90;99.90
18624;DHT22;9441;51.420;7.036;2024-03-08T02:08:27;2.00;99.90
18624;DHT22;9441;51.420;7.036;2024-03-08T02:09:30;2.00;99.90
18624;DHT22;9441;51.420;7.036;2024-03-08T02:10:30;2.00;99.90
18624;DHT22;9441;51.420;7.036;2024-03-08T02:11:33;2.10;99.90
18624;DHT22;9441;51.420;7.036;2024-03-08T02:12:34;2.00;99.90
18624;DHT22;9441;51.420;7.036;2024-03-08T02:13:36;2.00;99.90
18624;DHT22;9441;51.420;7.036;2024-03-08T02:14:37;2.00;99.90
18624;DHT22;9441;51.420;7.036;2024-03-08T02:15:50;2.00;99.90
18624;DHT22;9441;51.420;7.036;2024-03-08T02:16:52;1.90;99.90
18624;DHT22;9441;51.420;7.036;2024-03-08T02:17:54;2.00;99.90
18624;DHT22;9441;51.420;7.036;2024-03-08T02:18:58;1.90;99.90
18624;DHT22;9441;51.420;7.036;2024-03-08T02:19:59;1.90;99.90
18624;DHT22;9441;51.420;7.036;2024-03-08T02:21:05;1.90;99.90
18624;DHT22;9441;51.420;7.036;2024-03-08T02:22:06;1.90;99.90
18624;DHT22;9441;51.420;7.036;2024-03-08T02:23:09;1.80;99.90
18624;DHT22;9441;51.420;7.036;2024-03-08T02:24:10;1.90;99.90
18624;DHT22;9441;51.420;7.036;2024-03-08T02:25:12;1.80;99.90
18624;DHT22;9441;51.420;7.036;2024-03-08T02:26:13;1.90;99.90
18624;DHT22;9441;51.420;7.036;2024-03-08T02:27:15;1.80;99.90
18624;DHT22;9441;51.420;7.036;2024-03-08T02:28:24;1.90;99.90
18624;DHT22;9441;51.420;7.036;2024-03-08T02:29:26;1.90;99.90
18624;DHT22;9441;51.420;7.036;2024-03-08T02:30:27;1.80;99.90
18624;DHT22;9441;51.420;7.036;2024-03-08T02:31:30;1.90;99.90
18624;DHT22;9441;51.420;7.036;2024-03-08T02:32:31;2.00;99.90
18624;DHT22;9441;51.420;7.036;2024-03-08T02:33:33;1.90;99.90
18624;DHT22;9441;51.420;7.036;2024-03-08T02:34:34;2.00;99.90
18624;DHT22;9441;51.420;7.036;2024-03-08T02:35:36;1.90;99.90
18624;DHT22;9441;51.420;7.036;2024-03-08T02:36:38;1.90;99.90
18624;DHT22;9441;51.420;7.036;2024-03-08T02:37:40;1.90;99.90
18624;DHT22;9441;51.420;7.036;2024-03-08T02:38:41;1.80;99.90
18624;DHT22;9441;51.420;7.036;2024-03-08T02:39:44;1.90;99.90
18624;DHT22;9441;51.420;7.036;2024-03-08T02:40:47;1.80;99.90
18624;DHT22;9441;51.420;7.036;2024-03-08T02:41:49;1.70;99.90
18624;DHT22;9441;51.420;7.036;2024-03-08T02:42:51;1.80;99.90
18624;DHT22;9441;51.420;7.036;2024-03-08T02:43:53;1.70;99.90
18624;DHT22;9441;51.420;7.036;2024-03-08T02:44:56;1.70;99.90
18624;DHT22;9441;51.420;7.036;2024-03-08T02:45:59;1.70;99.90
18624;DHT22;9441;51.420;7.036;2024-03-08T02:47:00;1.70;99.90
18624;DHT22;9441;51.420;7.036;2024-03-08T02:48:02;1.70;99.90
18624;DHT22;9441;51.420;7.036;2024-03-08T02:49:04;1.70;99.90
18624;DHT22;9441;51.420;7.036;2024-03-08T02:50:07;1.60;99.90
18624;DHT22;9441;51.420;7.036;2024-03-08T02:51:08;1.60;99.90
18624;DHT22;9441;51.420;7.036;2024-03-08T02:52:12;1.60;99.90
18624;DHT22;9441;51.420;7.036;2024-03-08T02:53:14;1.50;99.90
18624;DHT22;9441;51.420;7.036;2024-03-08T02:54:15;1.60;1.00
18624;DHT22;9441;51.420;7.036;2024-03-08T02:55:18;1.70;1.00
18624;DHT22;9441;51.420;7.036;2024-03-08T02:56:20;1.60;1.00
18624;DHT22;9441;51.420;7.036;2024-03-08T02:57:22;1.60;1.00
18624;DHT22;9441;51.420;7.036;2024-03-08T02:58:25;1.60;1.00
18624;DHT22;9441;51.420;7.036;2024-03-08T02:59:26;1.60;1.00
18624;DHT22;9441;51.420;7.036;2024-03-08T03:00:28;1.60;1.00
18624;DHT22;9441;51.420;7.036;2024-03-08T03:01:31;1.60;1.00
18624;DHT22;9441;51.420;7.036;2024-03-08T03:02:33;1.60;1.00
18624;DHT22;9441;51.420;7.036;2024-03-08T03:03:35;1.60;1.00
18624;DHT22;9441;51.420;7.036;2024-03-08T03:04:39;1.60;1.00
18624;DHT22;9441;51.420;7.036;2024-03-08T03:05:41;1.60;1.00
18624;DHT22;9441;51.420;7.036;2024-03-08T03:06:43;1.50;1.00
18624;DHT22;9441;51.420;7.036;2024-03-08T03:07:46;1.50;1.00
18624;DHT22;9441;51.420;7.036;2024-03-08T03:08:47;1.40;1.00
18624;DHT22;9441;51.420;7.036;2024-03-08T03:09:49;1.50;1.00
18624;DHT22;9441;51.420;7.036;2024-03-08T03:10:51;1.50;1.00
18624;DHT22;9441;51.420;7.036;2024-03-08T03:11:53;1.40;1.00
18624;DHT22;9441;51.420;7.036;2024-03-08T03:12:54;1.30;1.00
18624;DHT22;9441;51.420;7.036;2024-03-08T03:13:56;1.40;1.00
18624;DHT22;9441;51.420;7.036;2024-03-08T03:14:57;1.50;1.00
18624;DHT22;9441;51.420;7.036;2024-03-08T03:15:59;1.50;1.00
18624;DHT22;9441;51.420;7.036;2024-03-08T03:17:00;1.40;1.00
18624;DHT22;9441;51.420;7.036;2024-03-08T03:18:03;1.40;1.00
18624;DHT22;9441;51.420;7.036;2024-03-08T03:19:08;1.50;1.00
18624;DHT22;9441;51.420;7.036;2024-03-08T03:20:10;1.60;1.00
18624;DHT22;9441;51.420;7.036;2024-03-08T03:21:14;1.50;1.00
18624;DHT22;9441;51.420;7.036;2024-03-08T03:22:15;1.50;1.00
18624;DHT22;9441;51.420;7.036;2024-03-08T03:23:19;1.50;1.00
18624;DHT22;9441;51.420;7.036;2024-03-08T03:24:21;1.40;1.00
18624;DHT22;9441;51.420;7.036;2024-03-08T03:25:24;1.30;1.00
18624;DHT22;9441;51.420;7.036;2024-03-08T03:26:26;1.30;1.00
18624;DHT22;9441;51.420;7.036;2024-03-08T03:27:28;1.40;1.00
18624;DHT22;9441;51.420;7.036;2024-03-08T03:28:31;1.50;1.00
18624;DHT22;9441;51.420;7.036;2024-03-08T03:29:33;1.50;1.00
18624;DHT22;9441;51.420;7.036;2024-03-08T03:30:35;1.50;1.00
18624;DHT22;9441;51.420;7.036;2024-03-08T03:31:38;1.40;1.00
18624;DHT22;9441;51.420;7.036;2024-03-08T03:32:41;1.20;1.00
18624;DHT22;9441;51.420;7.036;2024-03-08T03:33:47;1.20;1.00
18624;DHT22;9441;51.420;7.036;2024-03-08T03:34:52;1.30;1.00
18624;DHT22;9441;51.420;7.036;2024-03-08T03:35:53;1.20;1.00
18624;DHT22;9441;51.420;7.036;2024-03-08T03:36:55;1.20;1.00
18624;DHT22;9441;51.420;7.036;2024-03-08T03:37:56;1.30;1.00
18624;DHT22;9441;51.420;7.036;2024-03-08T03:39:08;1.20;1.00
18624;DHT22;9441;51.420;7.036;2024-03-08T03:40:14;1.30;1.00
18624;DHT22;9441;51.420;7.036;2024-03-08T03:41:16;1.30;1.00
18624;DHT22;9441;51.420;7.036;2024-03-08T03:42:17;1.30;1.00
18624;DHT22;9441;51.420;7.036;2024-03-08T03:43:19;1.30;1.00
18624;DHT22;9441;51.420;7.036;2024-03-08T03:44:20;1.30;1.00
18624;DHT22;9441;51.420;7.036;2024-03-08T03:45:23;1.20;1.00
18624;DHT22;9441;51.420;7.036;2024-03-08T03:46:24;1.30;1.00
18624;DHT22;9441;51.420;7.036;2024-03-08T03:47:27;1.30;1.00
18624;DHT22;9441;51.420;7.036;2024-03-08T03:48:28;1.30;1.00
18624;DHT22;9441;51.420;7.036;2024-03-08T03:49:31;1.40;1.00
18624;DHT22;9441;51.420;7.036;2024-03-08T03:50:32;1.30;1.00
18624;DHT22;9441;51.420;7.036;2024-03-08T03:51:35;1.30;1.00
18624;DHT22;9441;51.420;7.036;2024-03-08T03:52:36;1.30;1.00
18624;DHT22;9441;51.420;7.036;2024-03-08T03:53:37;1.30;1.00
18624;DHT22;9441;51.420;7.036;2024-03-08T03:54:40;1.30;1.00
18624;DHT22;9441;51.420;7.036;2024-03-08T03:55:41;1.40;1.00
18624;DHT22;9441;51.420;7.036;2024-03-08T03:56:43;1.30;1.00
18624;DHT22;9441;51.420;7.036;2024-03-08T03:57:45;1.20;1.00
18624;DHT22;9441;51.420;7.036;2024-03-08T03:58:48;1.30;1.00
18624;DHT22;9441;51.420;7.036;2024-03-08T03:59:50;1.30;1.00
18624;DHT22;9441;51.420;7.036;2024-03-08T04:00:51;1.20;1.00
18624;DHT22;9441;51.420;7.036;2024-03-08T04:01:54;1.20;1.00
18624;DHT22;9441;51.420;7.036;2024-03-08T04:02:55;1.10;1.00
18624;DHT22;9441;51.420;7.036;2024-03-08T04:04:01;1.00;1.00
18624;DHT22;9441;51.420;7.036;2024-03-08T04:05:02;1.10;1.00
18624;DHT22;9441;51.420;7.036;2024-03-08T04:06:04;1.10;1.00
18624;DHT22;9441;51.420;7.036;2024-03-08T04:07:05;1.10;1.00
18624;DHT22;9441;51.420;7.036;2024-03-08T04:08:07;1.10;1.00
18624;DHT22;9441;51.420;7.036;2024-03-08T04:09:08;1.10;1.00
18624;DHT22;9441;51.420;7.036;2024-03-08T04:10:13;1.10;1.00
18624;DHT22;9441;51.420;7.036;2024-03-08T04:11:15;1.10;1.00
18624;DHT22;9441;51.420;7.036;2024-03-08T04:12:17;1.20;1.00
18624;DHT22;9441;51.420;7.036;2024-03-08T04:13:18;1.20;1.00
18624;DHT22;9441;51.420;7.036;2024-03-08T04:14:21;1.10;1.00
18624;DHT22;9441;51.420;7.036;2024-03-08T04:15:23;1.10;1.00
18624;DHT22;9441;51.420;7.036;2024-03-08T04:16:24;1.20;1.00
18624;DHT22;9441;51.420;7.036;2024-03-08T04:17:27;1.20;1.00
18624;DHT22;9441;51.420;7.036;2024-03-08T04:18:28;1.20;1.00
18624;DHT22;9441;51.420;7.036;2024-03-08T04:19:30;1.20;1.00
18624;DHT22;9441;51.420;7.036;2024-03-08T04:20:31;1.20;1.00
18624;DHT22;9441;51.420;7.036;2024-03-08T04:21:33;1.20;1.00
18624;DHT22;9441;51.420;7.036;2024-03-08T04:22:34;1.20;1.00
18624;DHT22;9441;51.420;7.036;2024-03-08T04:23:36;1.10;1.00
18624;DHT22;9441;51.420;7.036;2024-03-08T04:24:37;1.10;1.00
18624;DHT22;9441;51.420;7.036;2024-03-08T04:25:42;1.10;1.00
18624;DHT22;9441;51.420;7.036;2024-03-08T04:26:45;1.10;1.00
18624;DHT22;9441;51.420;7.036;2024-03-08T04:27:48;1.10;1.00
18624;DHT22;9441;51.420;7.036;2024-03-08T04:28:50;1.00;1.00
18624;DHT22;9441;51.420;7.036;2024-03-08T04:29:52;1.10;1.00
18624;DHT22;9441;51.420;7.036;2024-03-08T04:30:54;1.10;1.00
18624;DHT22;9441;51.420;7.036;2024-03-08T04:31:56;1.00;1.00
18624;DHT22;9441;51.420;7.036;2024-03-08T04:32:57;1.10;1.00
18624;DHT22;9441;51.420;7.036;2024-03-08T04:34:00;1.10;1.00
18624;DHT22;9441;51.420;7.036;2024-03-08T04:35:01;1.00;1.00
18624;DHT22;9441;51.420;7.036;2024-03-08T04:36:05;1.00;1.00
18624;DHT22;9441;51.420;7.036;2024-03-08T04:37:06;1.00;1.00
18624;DHT22;9441;51.420;7.036;2024-03-08T04:38:11;1.10;1.00
18624;DHT22;9441;51.420;7.036;2024-03-08T04:39:13;1.10;1.00
18624;DHT22;9441;51.420;7.036;2024-03-08T04:40:14;1.10;1.00
18624;DHT22;9441;51.420;7.036;2024-03-08T04:41:17;1.10;1.00
18624;DHT22;9441;51.420;7.036;2024-03-08T04:42:19;1.00;1.00
18624;DHT22;9441;51.420;7.036;2024-03-08T04:43:20;0.90;1.00
18624;DHT22;9441;51.420;7.036;2024-03-08T04:44:23;1.00;1.00
18624;DHT22;9441;51.420;7.036;2024-03-08T04:45:25;0.90;1.00
18624;DHT22;9441;51.420;7.036;2024-03-08T04:46:27;0.90;1.00
18624;DHT22;9441;51.420;7.036;2024-03-08T04:47:29;0.90;1.00
18624;DHT22;9441;51.420;7.036;2024-03-08T04:48:31;1.00;1.00
18624;DHT22;9441;51.420;7.036;2024-03-08T04:49:32;1.00;1.00
18624;DHT22;9441;51.420;7.036;2024-03-08T04:50:35;0.90;1.00
18624;DHT22;9441;51.420;7.036;2024-03-08T04:51:36;0.70;1.00
18624;DHT22;9441;51.420;7.036;2024-03-08T04:52:38;0.80;1.00
18624;DHT22;9441;51.420;7.036;2024-03-08T04:53:39;1.00;1.00
18624;DHT22;9441;51.420;7.036;2024-03-08T04:54:41;1.10;1.00
18624;DHT22;9441;51.420;7.036;2024-03-08T04:55:42;1.00;1.00
18624;DHT22;9441;51.420;7.036;2024-03-08T04:56:46;1.00;1.00
18624;DHT22;9441;51.420;7.036;2024-03-08T04:57:47;1.00;1.00
18624;DHT22;9441;51.420;7.036;2024-03-08T04:58:49;1.00;1.00
18624;DHT22;9441;51.420;7.036;2024-03-08T04:59:50;0.90;1.00
18624;DHT22;9441;51.420;7.036;2024-03-08T05:00:52;0.80;1.00
18624;DHT22;9441;51.420;7.036;2024-03-08T05:01:53;0.90;1.00
18624;DHT22;9441;51.420;7.036;2024-03-08T05:02:55;1.00;1.00
18624;DHT22;9441;51.420;7.036;2024-03-08T05:03:56;0.80;1.00
18624;DHT22;9441;51.420;7.036;2024-03-08T05:04:58;0.80;1.00
18624;DHT22;9441;51.420;7.036;2024-03-08T05:05:59;0.90;1.00
18624;DHT22;9441;51.420;7.036;2024-03-08T05:07:00;1.00;1.00
18624;DHT22;9441;51.420;7.036;2024-03-08T05:08:03;1.00;1.00
18624;DHT22;9441;51.420;7.036;2024-03-08T05:09:04;0.90;1.00
18624;DHT22;9441;51.420;7.036;2024-03-08T05:10:14;0.90;1.00
18624;DHT22;9441;51.420;7.036;2024-03-08T05:11:18;0.90;1.00
18624;DHT22;9441;51.420;7.036;2024-03-08T05:12:21;0.90;1.00
18624;DHT22;9441;51.420;7.036;2024-03-08T05:13:23;1.00;1.00
18624;DHT22;9441;51.420;7.036;2024-03-08T05:14:25;1.00;1.00
18624;DHT22;9441;51.420;7.036;2024-03-08T05:15:26;1.00;1.00
18624;DHT22;9441;51.420;7.036;2024-03-08T05:16:28;0.80;1.00
18624;DHT22;9441;51.420;7.036;2024-03-08T05:17:29;0.90;1.00
18624;DHT22;9441;51.420;7.036;2024-03-08T05:18:31;0.80;1.00
18624;DHT22;9441;51.420;7.036;2024-03-08T05:19:32;0.80;1.00
18624;DHT22;9441;51.420;7.036;2024-03-08T05:20:35;0.80;1.00
18624;DHT22;9441;51.420;7.036;2024-03-08T05:21:37;0.80;1.00
18624;DHT22;9441;51.420;7.036;2024-03-08T05:22:39;0.80;1.00
18624;DHT22;9441;51.420;7.036;2024-03-08T05:23:41;0.80;1.00
18624;DHT22;9441;51.420;7.036;2024-03-08T05:24:43;0.90;11.60
18624;DHT22;9441;51.420;7.036;2024-03-08T05:25:44;0.80;1.00
18624;DHT22;9441;51.420;7.036;2024-03-08T05:26:46;0.70;1.00
18624;DHT22;9441;51.420;7.036;2024-03-08T05:27:49;0.70;1.00
18624;DHT22;9441;51.420;7.036;2024-03-08T05:28:50;0.80;19.70
18624;DHT22;9441;51.420;7.036;2024-03-08T05:29:52;0.90;23.70
18624;DHT22;9441;51.420;7.036;2024-03-08T05:30:53;0.80;1.00
18624;DHT22;9441;51.420;7.036;2024-03-08T05:31:57;0.90;37.10
18624;DHT22;9441;51.420;7.036;2024-03-08T05:32:58;0.90;24.10
18624;DHT22;9441;51.420;7.036;2024-03-08T05:34:00;0.70;1.00
18624;DHT22;9441;51.420;7.036;2024-03-08T05:35:01;0.80;21.20
18624;DHT22;9441;51.420;7.036;2024-03-08T05:36:07;0.80;39.40
18624;DHT22;9441;51.420;7.036;2024-03-08T05:37:09;0.80;41.60
18624;DHT22;9441;51.420;7.036;2024-03-08T05:38:11;0.80;12.30
18624;DHT22;9441;51.420;7.036;2024-03-08T05:39:13;0.90;60.20
18624;DHT22;9441;51.420;7.036;2024-03-08T05:40:14;0.80;5.60
18624;DHT22;9441;51.420;7.036;2024-03-08T05:41:16;0.70;1.00
18624;DHT22;9441;51.420;7.036;2024-03-08T05:42:18;0.80;8.00
18624;DHT22;9441;51.420;7.036;2024-03-08T05:43:21;0.60;1.00
18624;DHT22;9441;51.420;7.036;2024-03-08T05:44:22;0.50;1.00
18624;DHT22;9441;51.420;7.036;2024-03-08T05:45:24;0.60;3.10
18624;DHT22;9441;51.420;7.036;2024-03-08T05:46:26;0.70;77.00
18624;DHT22;9441;51.420;7.036;2024-03-08T05:47:27;0.80;82.30
18624;DHT22;9441;51.420;7.036;2024-03-08T05:48:29;0.80;68.30
18624;DHT22;9441;51.420;7.036;2024-03-08T05:49:30;0.70;40.60
18624;DHT22;9441;51.420;7.036;2024-03-08T05:50:32;0.70;91.50
18624;DHT22;9441;51.420;7.036;2024-03-08T05:51:33;0.60;58.50
18624;DHT22;9441;51.420;7.036;2024-03-08T05:52:35;0.70;90.50
18624;DHT22;9441;51.420;7.036;2024-03-08T05:53:38;0.60;61.10
18624;DHT22;9441;51.420;7.036;2024-03-08T05:54:39;0.60;70.00
18624;DHT22;9441;51.420;7.036;2024-03-08T05:55:41;0.70;99.90
18624;DHT22;9441;51.420;7.036;2024-03-08T05:56:42;0.80;99.90
18624;DHT22;9441;51.420;7.036;2024-03-08T05:57:44;0.70;99.60
18624;DHT22;9441;51.420;7.036;2024-03-08T05:58:47;0.70;91.80
18624;DHT22;9441;51.420;7.036;2024-03-08T05:59:50;0.70;65.00
18624;DHT22;9441;51.420;7.036;2024-03-08T06:00:51;0.70;99.10
18624;DHT22;9441;51.420;7.036;2024-03-08T06:01:53;0.60;79.50
18624;DHT22;9441;51.420;7.036;2024-03-08T06:02:55;0.60;93.10
18624;DHT22;9441;51.420;7.036;2024-03-08T06:03:57;0.70;99.90
18624;DHT22;9441;51.420;7.036;2024-03-08T06:04:58;0.70;99.90
18624;DHT22;9441;51.420;7.036;2024-03-08T06:06:03;0.60;99.90
18624;DHT22;9441;51.420;7.036;2024-03-08T06:07:04;0.60;99.90
18624;DHT22;9441;51.420;7.036;2024-03-08T06:08:06;0.70;99.90
18624;DHT22;9441;51.420;7.036;2024-03-08T06:09:08;0.70;99.90
18624;DHT22;9441;51.420;7.036;2024-03-08T06:10:12;0.70;99.90
18624;DHT22;9441;51.420;7.036;2024-03-08T06:11:13;0.70;99.90
18624;DHT22;9441;51.420;7.036;2024-03-08T06:12:18;0.80;99.90
18624;DHT22;9441;51.420;7.036;2024-03-08T06:13:19;0.60;82.30
18624;DHT22;9441;51.420;7.036;2024-03-08T06:14:22;0.50;49.50
18624;DHT22;9441;51.420;7.036;2024-03-08T06:15:24;0.60;99.90
18624;DHT22;9441;51.420;7.036;2024-03-08T06:16:28;0.70;99.90
18624;DHT22;9441;51.420;7.036;2024-03-08T06:17:29;0.60;99.90
18624;DHT22;9441;51.420;7.036;2024-03-08T06:18:32;0.60;99.90
18624;DHT22;9441;51.420;7.036;2024-03-08T06:19:33;0.60;99.90
18624;DHT22;9441;51.420;7.036;2024-03-08T06:20:36;0.60;99.90
18624;DHT22;9441;51.420;7.036;2024-03-08T06:21:37;0.50;94.20
18624;DHT22;9441;51.420;7.036;2024-03-08T06:22:40;0.60;99.90
18624;DHT22;9441;51.420;7.036;2024-03-08T06:23:41;0.60;99.90
18624;DHT22;9441;51.420;7.036;2024-03-08T06:24:43;0.50;99.90
18624;DHT22;9441;51.420;7.036;2024-03-08T06:25:44;0.60;99.90
18624;DHT22;9441;51.420;7.036;2024-03-08T06:26:45;0.60;99.90
18624;DHT22;9441;51.420;7.036;2024-03-08T06:27:47;0.50;99.90
18624;DHT22;9441;51.420;7.036;2024-03-08T06:28:48;0.60;99.90
18624;DHT22;9441;51.420;7.036;2024-03-08T06:29:51;0.50;99.90
18624;DHT22;9441;51.420;7.036;2024-03-08T06:30:53;0.60;99.90
18624;DHT22;9441;51.420;7.036;2024-03-08T06:31:54;0.60;99.90
18624;DHT22;9441;51.420;7.036;2024-03-08T06:32:56;0.60;99.90
18624;DHT22;9441;51.420;7.036;2024-03-08T06:33:57;0.60;99.90
18624;DHT22;9441;51.420;7.036;2024-03-08T06:34:59;0.70;99.90
18624;DHT22;9441;51.420;7.036;2024-03-08T06:36:00;0.70;99.90
18624;DHT22;9441;51.420;7.036;2024-03-08T06:37:02;0.80;99.90
18624;DHT22;9441;51.420;7.036;2024-03-08T06:38:04;0.80;99.90
18624;DHT22;9441;51.420;7.036;2024-03-08T06:39:05;0.70;99.90
18624;DHT22;9441;51.420;7.036;2024-03-08T06:40:10;0.80;99.90
18624;DHT22;9441;51.420;7.036;2024-03-08T06:41:14;0.80;99.90
18624;DHT22;9441;51.420;7.036;2024-03-08T06:42:16;0.90;99.90
18624;DHT22;9441;51.420;7.036;2024-03-08T06:43:17;0.80;99.90
18624;DHT22;9441;51.420;7.036;2024-03-08T06:44:20;0.80;99.90
18624;DHT22;9441;51.420;7.036;2024-03-08T06:45:23;0.80;99.90
18624;DHT22;9441;51.420;7.036;2024-03-08T06:46:26;0.90;99.90
18624;DHT22;9441;51.420;7.036;2024-03-08T06:47:27;1.00;99.90